createdAt,value
2022-10-24T00:00:51.727Z,4.00
2022-10-24T00:03:18.237Z,3.85
2022-10-24T00:05:45.995Z,4.15
2022-10-24T00:08:12.780Z,3.90
2022-10-24T00:10:47.415Z,4.82
2022-10-24T00:13:15.152Z,4.22
2022-10-24T00:15:46.845Z,4.13
2022-10-24T00:18:13.637Z,5.30
2022-10-24T00:20:40.463Z,4.50
2022-10-24T00:23:07.379Z,4.90
2022-10-24T00:25:33.916Z,4.30
2022-10-24T00:28:00.434Z,4.90
2022-10-24T00:30:26.992Z,4.38
2022-10-24T00:32:53.826Z,4.60
2022-10-24T00:35:20.441Z,4.38
2022-10-24T00:37:47.394Z,4.47
2022-10-24T00:40:16.986Z,4.65
2022-10-24T00:42:43.597Z,4.63
2022-10-24T00:45:34.672Z,4.75
2022-10-24T00:48:01.233Z,4.55
2022-10-24T00:50:28.193Z,4.05
2022-10-24T00:52:55.098Z,3.58
2022-10-24T00:55:21.690Z,4.65
2022-10-24T00:57:50.732Z,3.47
2022-10-24T01:00:21.804Z,3.60
2022-10-24T01:02:48.553Z,3.58
2022-10-24T01:05:15.999Z,3.78
2022-10-24T01:08:04.484Z,3.47
2022-10-24T01:10:57.073Z,3.63
2022-10-24T01:13:47.609Z,3.45
2022-10-24T01:16:35.941Z,3.47
2022-10-24T01:19:37.747Z,3.40
2022-10-24T01:22:13.140Z,3.10
2022-10-24T01:24:58.055Z,4.05
2022-10-24T01:27:39.537Z,3.65
2022-10-24T01:32:41.208Z,4.07
2022-10-24T01:35:23.316Z,3.78
2022-10-24T01:37:58.902Z,3.63
2022-10-24T01:40:33.785Z,3.42
2022-10-24T01:43:04.670Z,3.70
2022-10-24T01:45:35.057Z,3.90
2022-10-24T01:48:04.635Z,3.65
2022-10-24T01:50:31.624Z,3.95
2022-10-24T01:52:58.625Z,4.90
2022-10-24T01:55:25.124Z,4.45
2022-10-24T01:57:51.590Z,4.55
2022-10-24T02:00:20.950Z,5.28
2022-10-24T02:02:58.556Z,5.20
2022-10-24T02:05:38.942Z,4.13
2022-10-24T02:08:10.137Z,4.95
2022-10-24T02:10:48.265Z,4.70
2022-10-24T02:13:19.665Z,4.82
2022-10-24T02:15:52.003Z,4.88
2022-10-24T02:18:18.877Z,4.43
2022-10-24T02:20:50.934Z,4.00
2022-10-24T02:23:46.963Z,4.25
2022-10-24T02:26:25.335Z,4.50
2022-10-24T02:28:53.828Z,4.72
2022-10-24T02:31:23.090Z,4.30
2022-10-24T02:38:16.654Z,3.45
2022-10-24T02:40:43.977Z,4.27
2022-10-24T02:43:11.000Z,4.00
2022-10-24T02:45:37.757Z,3.03
2022-10-24T02:48:08.445Z,3.15
2022-10-24T02:50:35.542Z,3.25
2022-10-24T02:53:02.052Z,3.70
2022-10-24T02:55:28.581Z,3.42
2022-10-24T02:57:55.093Z,4.13
2022-10-24T03:00:22.428Z,4.07
2022-10-24T03:02:48.896Z,3.25
2022-10-24T03:05:15.365Z,3.20
2022-10-24T03:07:41.858Z,3.78
2022-10-24T03:10:08.715Z,3.60
2022-10-24T03:12:35.187Z,4.13
2022-10-24T03:15:01.844Z,3.63
2022-10-24T03:17:28.297Z,3.53
2022-10-24T03:19:54.778Z,3.20
2022-10-24T03:22:21.284Z,3.65
2022-10-24T03:24:55.079Z,3.22
2022-10-24T03:27:22.459Z,4.00
2022-10-24T03:29:48.980Z,3.60
2022-10-24T03:32:15.606Z,3.17
2022-10-24T03:34:42.545Z,3.63
2022-10-24T03:37:09.090Z,3.25
2022-10-24T03:39:35.639Z,3.25
2022-10-24T03:42:02.176Z,3.90
2022-10-24T03:44:28.758Z,3.10
2022-10-24T03:46:55.291Z,2.90
2022-10-24T03:49:21.865Z,3.40
2022-10-24T03:51:48.356Z,3.03
2022-10-24T03:54:15.310Z,3.10
2022-10-24T03:56:43.865Z,2.90
2022-10-24T03:59:11.027Z,3.38
2022-10-24T04:01:37.628Z,2.78
2022-10-24T04:04:04.485Z,3.22
2022-10-24T04:06:34.010Z,2.80
2022-10-24T04:09:03.620Z,2.78
2022-10-24T04:11:30.089Z,2.88
2022-10-24T04:13:56.685Z,3.05
2022-10-24T04:16:24.050Z,2.33
2022-10-24T04:18:51.339Z,3.03
2022-10-24T04:21:21.602Z,3.25
2022-10-24T04:23:48.855Z,2.83
2022-10-24T04:26:18.131Z,3.15
2022-10-24T04:28:46.777Z,5.80
2022-10-24T04:31:15.905Z,3.45
2022-10-24T04:33:44.827Z,3.83
2022-10-24T04:36:11.392Z,2.88
2022-10-24T04:38:37.956Z,3.97
2022-10-24T04:41:07.298Z,3.78
2022-10-24T04:43:36.597Z,3.35
2022-10-24T04:46:03.251Z,2.60
2022-10-24T04:48:29.773Z,3.58
2022-10-24T04:50:56.333Z,4.30
2022-10-24T04:53:22.945Z,5.78
2022-10-24T04:55:49.432Z,4.65
2022-10-24T04:58:15.913Z,4.75
2022-10-24T05:00:46.443Z,3.72
2022-10-24T05:03:13.386Z,3.10
2022-10-24T05:05:39.837Z,2.50
2022-10-24T05:08:06.430Z,2.85
2022-10-24T05:10:32.914Z,3.22
2022-10-24T05:12:59.433Z,2.90
2022-10-24T05:15:26.144Z,3.70
2022-10-24T05:17:52.726Z,3.50
2022-10-24T05:20:19.276Z,3.00
2022-10-24T05:22:46.221Z,2.90
2022-10-24T05:25:13.798Z,3.17
2022-10-24T05:27:40.319Z,2.90
2022-10-24T05:30:07.341Z,2.75
2022-10-24T05:32:37.314Z,2.70
2022-10-24T05:35:06.606Z,2.92
2022-10-24T05:37:33.084Z,3.00
2022-10-24T05:39:59.608Z,2.53
2022-10-24T05:42:26.126Z,2.60
2022-10-24T05:44:52.694Z,3.38
2022-10-24T05:47:19.202Z,2.88
2022-10-24T05:49:45.734Z,2.58
2022-10-24T05:52:12.215Z,2.53
2022-10-24T05:54:48.862Z,2.22
2022-10-24T05:57:25.304Z,2.00
2022-10-24T05:59:51.838Z,2.15
2022-10-24T06:02:19.945Z,2.22
2022-10-24T06:04:46.887Z,2.42
2022-10-24T06:07:13.753Z,1.92
2022-10-24T06:09:41.522Z,1.83
2022-10-24T06:12:09.836Z,2.25
2022-10-24T06:14:39.943Z,2.20
2022-10-24T06:17:09.047Z,2.10
2022-10-24T06:19:36.721Z,2.13
2022-10-24T06:22:04.521Z,1.83
2022-10-24T06:24:31.446Z,2.25
2022-10-24T06:26:57.939Z,2.10
2022-10-24T06:29:24.428Z,2.10
2022-10-24T06:31:50.935Z,2.50
2022-10-24T06:34:17.480Z,1.63
2022-10-24T06:36:44.035Z,1.65
2022-10-24T06:39:10.590Z,1.73
2022-10-24T06:41:37.070Z,1.90
2022-10-24T06:44:06.635Z,1.98
2022-10-24T06:46:36.311Z,1.85
2022-10-24T06:49:02.989Z,1.63
2022-10-24T06:51:29.620Z,1.73
2022-10-24T06:53:56.117Z,2.13
2022-10-24T06:56:22.687Z,2.38
2022-10-24T06:58:49.227Z,2.33
2022-10-24T07:01:22.368Z,1.77
2022-10-24T07:03:49.245Z,1.90
2022-10-24T07:06:20.571Z,2.13
2022-10-24T07:11:14.103Z,1.35
2022-10-24T07:13:40.857Z,1.65
2022-10-24T07:16:07.666Z,1.42
2022-10-24T07:18:34.318Z,1.77
2022-10-24T07:21:05.252Z,1.70
2022-10-24T07:23:32.565Z,1.83
2022-10-24T07:26:07.269Z,2.17
2022-10-24T07:28:34.784Z,1.70
2022-10-24T07:31:01.825Z,1.60
2022-10-24T07:33:28.978Z,1.35
2022-10-24T07:35:55.992Z,1.92
2022-10-24T07:38:22.810Z,1.48
2022-10-24T07:40:49.365Z,1.75
2022-10-24T07:43:16.470Z,1.30
2022-10-24T07:45:46.658Z,1.63
2022-10-24T07:48:15.995Z,1.98
2022-10-24T07:50:44.007Z,1.77
2022-10-24T07:53:11.784Z,1.95
2022-10-24T07:55:39.799Z,1.42
2022-10-24T07:58:06.746Z,1.58
2022-10-24T08:00:33.688Z,1.60
2022-10-24T08:03:00.189Z,1.92
2022-10-24T08:05:26.714Z,1.35
2022-10-24T08:07:56.142Z,1.67
2022-10-24T08:10:32.368Z,1.92
2022-10-24T08:12:58.933Z,1.48
2022-10-24T08:15:27.685Z,1.58
2022-10-24T08:17:57.172Z,1.90
2022-10-24T08:20:26.109Z,1.50
2022-10-24T08:22:53.172Z,1.52
2022-10-24T08:25:19.688Z,1.60
2022-10-24T08:27:46.212Z,1.80
2022-10-24T08:30:12.950Z,1.80
2022-10-24T08:32:39.596Z,1.67
2022-10-24T08:35:07.232Z,1.48
2022-10-24T08:37:38.459Z,1.60
2022-10-24T08:40:09.328Z,1.65
2022-10-24T08:42:36.199Z,1.98
2022-10-24T08:45:03.198Z,2.00
2022-10-24T08:50:22.225Z,2.00
2022-10-24T08:52:59.319Z,1.80
2022-10-24T08:55:54.917Z,1.52
2022-10-24T08:58:27.593Z,1.30
2022-10-24T09:00:57.631Z,1.50
2022-10-24T09:03:55.043Z,1.70
2022-10-24T09:06:30.201Z,1.90
2022-10-24T09:09:01.089Z,1.63
2022-10-24T09:11:56.781Z,1.77
2022-10-24T09:14:27.537Z,1.73
2022-10-24T09:17:15.622Z,2.10
2022-10-24T09:19:46.917Z,1.27
2022-10-24T09:22:13.902Z,2.10
2022-10-24T09:24:47.456Z,1.85
2022-10-24T09:27:19.680Z,1.92
2022-10-24T09:29:46.280Z,1.63
2022-10-24T09:32:16.673Z,1.58
2022-10-24T09:34:43.961Z,1.88
2022-10-24T09:37:52.700Z,1.75
2022-10-24T09:40:23.740Z,1.50
2022-10-24T09:42:54.084Z,1.27
2022-10-24T09:45:29.107Z,2.05
2022-10-24T09:48:01.859Z,1.65
2022-10-24T09:50:28.905Z,1.58
2022-10-24T09:52:58.331Z,1.75
2022-10-24T09:55:28.666Z,1.50
2022-10-24T09:57:59.386Z,1.70
2022-10-24T10:00:27.613Z,2.05
2022-10-24T10:03:03.119Z,1.83
2022-10-24T10:05:42.625Z,2.13
2022-10-24T10:08:18.600Z,2.10
2022-10-24T10:10:56.052Z,1.70
2022-10-24T10:13:24.770Z,1.77
2022-10-24T10:16:05.617Z,1.88
2022-10-24T10:18:42.388Z,1.90
2022-10-24T10:21:10.877Z,2.17
2022-10-24T10:23:45.180Z,1.90
2022-10-24T10:26:19.761Z,1.85
2022-10-24T10:28:58.024Z,1.50
2022-10-24T10:31:28.759Z,2.28
2022-10-24T10:34:21.415Z,1.60
2022-10-24T10:37:09.818Z,1.90
2022-10-24T10:39:54.773Z,1.67
2022-10-24T10:42:34.623Z,2.00
2022-10-24T10:45:13.064Z,1.70
2022-10-24T10:47:50.090Z,1.75
2022-10-24T10:50:36.640Z,2.28
2022-10-24T10:53:22.162Z,2.40
2022-10-24T10:56:12.429Z,2.03
2022-10-24T10:59:24.695Z,1.70
2022-10-24T11:02:01.733Z,2.30
2022-10-24T11:04:34.232Z,1.48
2022-10-24T11:07:06.389Z,1.85
2022-10-24T11:09:48.470Z,1.63
2022-10-24T11:12:21.204Z,2.05
2022-10-24T11:14:51.777Z,1.83
2022-10-24T11:17:23.582Z,2.33
2022-10-24T11:19:56.889Z,2.20
2022-10-24T11:22:28.001Z,2.15
2022-10-24T11:25:01.732Z,2.38
2022-10-24T11:27:35.751Z,1.90
2022-10-24T11:30:07.191Z,2.95
2022-10-24T11:32:54.624Z,2.33
2022-10-24T11:35:37.195Z,2.20
2022-10-24T11:38:19.988Z,1.90
2022-10-24T11:40:48.460Z,1.90
2022-10-24T11:43:30.685Z,1.48
2022-10-24T11:46:16.260Z,1.98
2022-10-24T11:48:54.999Z,1.90
2022-10-24T11:51:43.882Z,1.75
2022-10-24T11:54:20.771Z,1.80
2022-10-24T11:56:50.406Z,1.67
2022-10-24T11:59:21.412Z,2.28
2022-10-24T12:02:04.488Z,2.13
2022-10-24T12:04:39.025Z,2.33
2022-10-24T12:07:30.504Z,1.58
2022-10-24T12:10:24.967Z,2.15
2022-10-24T12:13:26.154Z,2.58
2022-10-24T12:16:13.984Z,1.88
2022-10-24T12:18:44.037Z,1.77
2022-10-24T12:21:13.777Z,2.22
2022-10-24T12:23:41.798Z,2.20
2022-10-24T12:26:14.042Z,2.00
2022-10-24T12:28:41.170Z,1.52
2022-10-24T12:31:29.345Z,1.52
2022-10-24T12:34:22.884Z,1.83
2022-10-24T12:37:14.108Z,2.08
2022-10-24T12:39:45.767Z,1.63
2022-10-24T12:42:36.985Z,1.63
2022-10-24T12:45:08.227Z,1.90
2022-10-24T12:48:04.506Z,1.60
2022-10-24T12:50:34.147Z,2.55
2022-10-24T12:53:30.476Z,1.98
2022-10-24T12:55:56.866Z,1.65
2022-10-24T12:58:35.379Z,1.85
2022-10-24T13:01:11.951Z,1.80
2022-10-24T13:04:15.604Z,1.63
2022-10-24T13:07:11.250Z,1.80
2022-10-24T13:09:47.511Z,1.90
2022-10-24T13:12:43.033Z,1.60
2022-10-24T13:15:29.502Z,1.40
2022-10-24T13:18:16.672Z,1.70
2022-10-24T13:20:44.855Z,1.73
2022-10-24T13:23:26.707Z,1.75
2022-10-24T13:25:56.534Z,2.25
2022-10-24T13:28:22.966Z,1.73
2022-10-24T13:30:54.797Z,1.75
2022-10-24T13:33:30.069Z,1.55
2022-10-24T13:36:09.909Z,2.17
2022-10-24T13:38:46.433Z,1.35
2022-10-24T13:41:19.917Z,1.45
2022-10-24T13:43:48.465Z,1.80
2022-10-24T13:46:36.963Z,1.50
2022-10-24T13:49:04.767Z,2.00
2022-10-24T13:51:34.252Z,1.63
2022-10-24T13:54:03.974Z,2.30
2022-10-24T13:56:36.276Z,1.98
2022-10-24T13:59:03.265Z,1.65
2022-10-24T14:01:30.491Z,1.92
2022-10-24T14:03:58.561Z,1.67
2022-10-24T14:06:30.721Z,2.13
2022-10-24T14:09:06.884Z,1.23
2022-10-24T14:11:35.111Z,1.90
2022-10-24T14:14:06.483Z,1.77
2022-10-24T14:16:35.347Z,2.28
2022-10-24T14:19:27.142Z,1.58
2022-10-24T14:21:54.967Z,1.60
2022-10-24T14:24:22.719Z,1.60
2022-10-24T14:26:51.658Z,1.63
2022-10-24T14:29:22.977Z,1.55
2022-10-24T14:34:23.538Z,1.17
2022-10-24T14:36:50.146Z,1.50
2022-10-24T14:39:23.573Z,1.83
2022-10-24T14:41:51.903Z,1.73
2022-10-24T14:44:20.266Z,1.45
2022-10-24T14:47:02.473Z,2.20
2022-10-24T14:49:38.029Z,1.83
2022-10-24T14:52:15.013Z,2.35
2022-10-24T14:54:43.247Z,1.80
2022-10-24T14:57:20.506Z,1.60
2022-10-24T14:59:48.116Z,1.70
2022-10-24T15:02:20.575Z,1.42
2022-10-24T15:04:47.550Z,1.67
2022-10-24T15:07:22.903Z,1.45
2022-10-24T15:10:13.194Z,1.98
2022-10-24T15:12:52.116Z,1.77
2022-10-24T15:15:33.940Z,2.17
2022-10-24T15:18:31.073Z,1.63
2022-10-24T15:21:00.306Z,1.85
2022-10-24T15:23:29.665Z,2.50
2022-10-24T15:26:18.624Z,2.05
2022-10-24T15:28:54.827Z,2.97
2022-10-24T15:31:22.192Z,1.92
2022-10-24T15:33:48.932Z,3.08
2022-10-24T15:36:19.635Z,2.50
2022-10-24T15:38:46.134Z,2.92
2022-10-24T15:41:12.577Z,2.30
2022-10-24T15:43:39.124Z,2.55
2022-10-24T15:46:05.737Z,2.50
2022-10-24T15:48:32.245Z,2.30
2022-10-24T15:50:59.191Z,3.28
2022-10-24T15:53:25.668Z,2.88
2022-10-24T15:55:52.219Z,3.13
2022-10-24T15:58:18.753Z,2.83
2022-10-24T16:00:45.512Z,2.60
2022-10-24T16:03:16.428Z,2.75
2022-10-24T16:05:47.093Z,3.72
2022-10-24T16:08:15.328Z,2.80
2022-10-24T16:10:43.448Z,2.38
2022-10-24T16:13:12.918Z,2.88
2022-10-24T16:15:39.859Z,2.55
2022-10-24T16:18:06.723Z,3.10
2022-10-24T16:20:33.227Z,3.17
2022-10-24T16:22:59.737Z,3.70
2022-10-24T16:25:32.193Z,2.90
2022-10-24T16:27:58.667Z,2.78
2022-10-24T16:30:28.443Z,2.22
2022-10-24T16:32:55.503Z,3.20
2022-10-24T16:35:27.237Z,2.75
2022-10-24T16:37:55.223Z,3.45
2022-10-24T16:40:22.948Z,2.78
2022-10-24T16:42:50.394Z,3.30
2022-10-24T16:45:17.431Z,2.85
2022-10-24T16:47:43.944Z,2.95
2022-10-24T16:50:32.704Z,2.75
2022-10-24T16:53:02.516Z,2.95
2022-10-24T16:55:29.903Z,2.42
2022-10-24T16:57:56.698Z,6.80
2022-10-24T17:00:23.618Z,5.97
2022-10-24T17:02:52.094Z,2.15
2022-10-24T17:05:20.988Z,2.47
2022-10-24T17:07:47.725Z,2.03
2022-10-24T17:10:16.691Z,1.80
2022-10-24T17:12:46.864Z,1.58
2022-10-24T17:15:16.811Z,1.35
2022-10-24T17:17:46.579Z,1.45
2022-10-24T17:20:13.640Z,1.92
2022-10-24T17:22:44.183Z,1.40
2022-10-24T17:25:21.139Z,1.70
2022-10-24T17:27:48.495Z,1.77
2022-10-24T17:30:19.641Z,1.90
2022-10-24T17:32:46.556Z,2.00
2022-10-24T17:35:14.663Z,1.48
2022-10-24T17:37:52.304Z,1.92
2022-10-24T17:40:21.794Z,2.28
2022-10-24T17:42:49.424Z,1.90
2022-10-24T17:45:21.448Z,2.15
2022-10-24T17:47:48.489Z,1.80
2022-10-24T17:50:17.002Z,2.28
2022-10-24T17:52:44.198Z,2.00
2022-10-24T17:55:34.406Z,2.47
2022-10-24T17:58:06.413Z,2.83
2022-10-24T18:00:33.419Z,2.20
2022-10-24T18:02:59.920Z,2.10
2022-10-24T18:05:28.442Z,1.85
2022-10-24T18:07:57.682Z,2.30
2022-10-24T18:10:24.220Z,2.33
2022-10-24T18:12:50.789Z,2.40
2022-10-24T18:15:19.384Z,2.47
2022-10-24T18:17:46.490Z,2.22
2022-10-24T18:20:15.475Z,2.45
2022-10-24T18:22:43.076Z,2.50
2022-10-24T18:25:11.317Z,2.10
2022-10-24T18:27:37.929Z,2.25
2022-10-24T18:30:05.646Z,2.45
2022-10-24T18:32:32.608Z,3.20
2022-10-24T18:34:59.385Z,2.80
2022-10-24T18:37:26.102Z,2.90
2022-10-24T18:39:53.513Z,2.83
2022-10-24T18:42:34.378Z,2.45
2022-10-24T18:45:01.439Z,2.85
2022-10-24T18:47:28.960Z,2.90
2022-10-24T18:49:56.022Z,3.25
2022-10-24T18:52:50.131Z,2.80
2022-10-24T18:55:22.704Z,3.00
2022-10-24T18:57:50.563Z,2.97
2022-10-24T19:00:22.714Z,3.13
2022-10-24T19:02:58.767Z,3.00
2022-10-24T19:05:53.795Z,3.03
2022-10-24T19:08:24.088Z,3.50
2022-10-24T19:10:56.304Z,3.28
2022-10-24T19:13:24.524Z,3.58
2022-10-24T19:15:57.685Z,3.17
2022-10-24T19:18:25.014Z,3.40
2022-10-24T19:20:51.594Z,4.20
2022-10-24T19:23:18.125Z,3.55
2022-10-24T19:25:44.687Z,3.35
2022-10-24T19:28:12.958Z,3.30
2022-10-24T19:30:42.149Z,3.83
2022-10-24T19:33:09.390Z,3.53
2022-10-24T19:35:37.395Z,4.30
2022-10-24T19:38:04.463Z,4.38
2022-10-24T19:40:31.049Z,4.28
2022-10-24T19:42:57.797Z,4.47
2022-10-24T19:45:25.276Z,5.07
2022-10-24T19:47:55.506Z,4.88
2022-10-24T19:50:22.401Z,5.13
2022-10-24T19:52:48.943Z,5.70
2022-10-24T19:55:15.480Z,5.32
2022-10-24T19:57:41.983Z,5.13
2022-10-24T20:00:08.985Z,6.15
2022-10-24T20:02:38.321Z,5.65
2022-10-24T20:05:05.294Z,5.10
2022-10-24T20:07:32.906Z,4.95
2022-10-24T20:09:59.825Z,3.78
2022-10-24T20:12:26.918Z,3.13
2022-10-24T20:14:53.416Z,2.55
2022-10-24T20:17:19.858Z,3.25
2022-10-24T20:19:46.437Z,3.22
2022-10-24T20:22:13.137Z,3.00
2022-10-24T20:24:39.674Z,2.72
2022-10-24T20:29:35.498Z,2.70
2022-10-24T20:32:01.979Z,2.30
2022-10-24T20:34:28.520Z,2.30
2022-10-24T20:36:54.994Z,2.00
2022-10-24T20:39:21.507Z,2.30
2022-10-24T20:41:51.691Z,2.50
2022-10-24T20:44:20.793Z,2.05
2022-10-24T20:46:47.296Z,2.53
2022-10-24T20:49:13.771Z,2.55
2022-10-24T20:51:41.891Z,2.20
2022-10-24T20:54:09.889Z,2.13
2022-10-24T20:56:41.790Z,2.25
2022-10-24T20:59:08.920Z,2.97
2022-10-24T21:01:35.451Z,1.98
2022-10-24T21:04:02.059Z,1.98
2022-10-24T21:06:33.208Z,5.10
2022-10-24T21:11:34.367Z,2.25
2022-10-24T21:14:03.768Z,2.10
2022-10-24T21:16:30.711Z,2.25
2022-10-24T21:18:57.798Z,2.55
2022-10-24T21:21:24.599Z,2.25
2022-10-24T21:23:52.531Z,2.70
2022-10-24T21:26:19.689Z,2.45
2022-10-24T21:28:46.208Z,2.72
2022-10-24T21:31:15.301Z,2.40
2022-10-24T21:33:42.051Z,2.72
2022-10-24T21:36:19.189Z,2.83
2022-10-24T21:38:47.766Z,2.50
2022-10-24T21:41:14.470Z,3.00
2022-10-24T21:43:41.985Z,2.90
2022-10-24T21:46:13.680Z,2.80
2022-10-24T21:48:41.550Z,3.00
2022-10-24T21:51:15.854Z,2.60
2022-10-24T21:53:45.043Z,3.17
2022-10-24T21:56:14.221Z,3.00
2022-10-24T21:58:40.994Z,3.22
2022-10-24T22:01:16.119Z,4.05
2022-10-24T22:03:43.047Z,3.45
2022-10-24T22:06:12.041Z,3.42
2022-10-24T22:08:38.527Z,3.88
2022-10-24T22:11:08.193Z,3.28
2022-10-24T22:13:35.386Z,3.78
2022-10-24T22:16:02.228Z,3.80
2022-10-24T22:18:30.256Z,3.55
2022-10-24T22:20:56.904Z,3.55
2022-10-24T22:23:23.860Z,3.25
2022-10-24T22:25:50.594Z,3.75
2022-10-24T22:28:17.232Z,3.80
2022-10-24T22:30:45.397Z,3.42
2022-10-24T22:33:27.783Z,3.38
2022-10-24T22:35:58.678Z,3.92
2022-10-24T22:38:25.761Z,3.55
2022-10-24T22:43:24.285Z,3.83
2022-10-24T22:46:02.671Z,3.97
2022-10-24T22:48:31.369Z,3.97
2022-10-24T22:50:57.893Z,4.47
2022-10-24T22:53:29.732Z,3.22
2022-10-24T22:56:15.758Z,3.45
2022-10-24T22:58:44.120Z,3.60
2022-10-24T23:01:22.692Z,4.35
2022-10-24T23:04:14.705Z,3.80
2022-10-24T23:06:48.977Z,3.47
2022-10-24T23:09:15.474Z,4.25
2022-10-24T23:11:42.405Z,3.92
2022-10-24T23:14:10.623Z,3.67
2022-10-24T23:16:45.166Z,3.85
2022-10-24T23:19:32.077Z,3.80
2022-10-24T23:22:02.735Z,4.35
2022-10-24T23:24:29.517Z,3.45
2022-10-24T23:27:14.152Z,3.28
2022-10-24T23:29:47.013Z,3.85
2022-10-24T23:32:25.033Z,3.90
2022-10-24T23:34:52.610Z,3.38
2022-10-24T23:37:31.822Z,3.67
2022-10-24T23:40:06.507Z,3.35
2022-10-24T23:42:33.297Z,3.88
2022-10-24T23:45:00.033Z,3.25
2022-10-24T23:47:49.090Z,3.78
2022-10-24T23:50:18.955Z,3.63
2022-10-24T23:53:03.685Z,3.28
2022-10-24T23:55:30.450Z,3.85
2022-10-24T23:57:56.981Z,3.67
